SEGU/GYE METAR and TAF weather

Enter ICAO airport designator
Station Type Date Time Source
SEGU METAR 2019/04/20 18:00 UTC NOAA

SEGU 201800Z 05004KT 360V120 9999 SCT023 BKN100 31/23 Q1010 NOSIG RMK A2985


Station Type Date Time Source
SEGU Decoded METAR 2019/04/20 18:00 UTC NOAA

Guayaquil / Simon Bolivar, Ecuador (SEGU) 02-09S 079-53W 9M
Apr 20, 2019 - 02:00 PM EDT / 2019.04.20 1800 UTC
Wind: from the NE (050 degrees) at 5 MPH (4 KT) (direction variable):0
Visibility: greater than 7 mile(s):0
Sky conditions: mostly cloudy
Temperature: 87 F (31 C)
Heat index: 93.9 F (34.4 C):1
Dew Point: 73 F (23 C)
Relative Humidity: 62%
Pressure (altimeter): 29.83 in. Hg (1010 hPa)
ob: SEGU 201800Z 05004KT 360V120 9999 SCT023 BKN100 31/23 Q1010 NOSIG RMK A2985
cycle: 18

Station Type Date Time Source
SEGU TAF 2019/04/20 18:11 UTC NOAA

TAF SEGU 201610Z 2018/2118 07006KT CAVOK
TEMPO 2022/2024 SHRA SCT026 SCT100
FM210000 20006KT 9999 FEW030 BKN100
TEMPO 2106/2109 RA BKN026 BKN100
FM211400 11006KT 9999 FEW030 BKN100 TX33/2019Z TN24/2110Z

Example: see airport list